RYR3WP LGTS-EIDW
Flight info
| Callsign | RYR3WP |
|---|---|
| Flight time | 3h 42m |
| Altitude | 38000 |
| Route | FSK UN128 RUGAS DCT SIN DCT RAXAD DCT RAMAP DCT SIVLA DCT NIDLO DCT LAMSI L604 RUDNO DCT MAPOX DCT RAVLO Y70 OTBED L60 PENIL UL28 LELDO M145 BAGSO BAGSO4L |
| Aircraft | B738/M-SDE3FGILRWY/SB1 |
Departure
| Time | 2026-05-06 20:06 |
|---|---|
| Airport | Thessaloniki Macedonia International Airport (LGTS) |
Arrival
| Time | 2026-05-06 23:48 |
|---|---|
| Airport | Dublin Airport (EIDW) |
| Time | Latitude | Longitude | Altitude | Speed | Heading |
|---|---|---|---|---|---|
| 2026-05-06 19:33 | 40.52411 | 22.97520 | 14 ft | 0 kts | 44° |
| 2026-05-06 19:56 | 40.52410 | 22.97519 | 14 ft | 1 kts | 44° |
| 2026-05-06 19:56 | 40.52394 | 22.97500 | 14 ft | 3 kts | 35° |
| 2026-05-06 19:57 | 40.52373 | 22.97483 | 14 ft | 3 kts | 23° |
| 2026-05-06 19:57 | 40.52350 | 22.97473 | 14 ft | 3 kts | 9° |
| 2026-05-06 19:57 | 40.52326 | 22.97471 | 14 ft | 3 kts | 353° |
| 2026-05-06 19:57 | 40.52304 | 22.97479 | 14 ft | 3 kts | 330° |
| 2026-05-06 19:58 | 40.52293 | 22.97488 | 14 ft | 0 kts | 315° |
| 2026-05-06 20:01 | 40.52296 | 22.97483 | 14 ft | 3 kts | 315° |
| 2026-05-06 20:02 | 40.52321 | 22.97447 | 14 ft | 8 kts | 315° |
| 2026-05-06 20:02 | 40.52374 | 22.97377 | 14 ft | 13 kts | 313° |
| 2026-05-06 20:02 | 40.52398 | 22.97270 | 14 ft | 13 kts | 258° |
| 2026-05-06 20:02 | 40.52393 | 22.97160 | 13 ft | 13 kts | 310° |
| 2026-05-06 20:03 | 40.52474 | 22.97122 | 15 ft | 12 kts | 347° |
| 2026-05-06 20:03 | 40.52556 | 22.97096 | 14 ft | 12 kts | 347° |
| 2026-05-06 20:03 | 40.52636 | 22.97071 | 14 ft | 12 kts | 346° |
| 2026-05-06 20:03 | 40.52725 | 22.97043 | 14 ft | 15 kts | 346° |
| 2026-05-06 20:04 | 40.52845 | 22.97004 | 14 ft | 20 kts | 346° |
| 2026-05-06 20:04 | 40.52987 | 22.96958 | 14 ft | 21 kts | 346° |
| 2026-05-06 20:04 | 40.53069 | 22.96920 | 14 ft | 10 kts | 307° |
| 2026-05-06 20:04 | 40.53052 | 22.96836 | 15 ft | 10 kts | 232° |
| 2026-05-06 20:05 | 40.53001 | 22.96779 | 13 ft | 8 kts | 202° |
| 2026-05-06 20:05 | 40.52965 | 22.96781 | 14 ft | 0 kts | 168° |
| 2026-05-06 20:05 | 40.52964 | 22.96782 | 14 ft | 3 kts | 168° |
| 2026-05-06 20:05 | 40.52733 | 22.96853 | 15 ft | 71 kts | 166° |
| 2026-05-06 20:06 | 40.52014 | 22.97084 | 11 ft | 139 kts | 166° |
| 2026-05-06 20:06 | 40.50927 | 22.97429 | 249 ft | 173 kts | 167° |
| 2026-05-06 20:06 | 40.49725 | 22.97758 | 1018 ft | 177 kts | 169° |
| 2026-05-06 20:06 | 40.48546 | 22.98041 | 1956 ft | 174 kts | 169° |
| 2026-05-06 20:07 | 40.47261 | 22.98401 | 2322 ft | 205 kts | 167° |
| 2026-05-06 20:07 | 40.45776 | 22.98837 | 2577 ft | 231 kts | 167° |
| 2026-05-06 20:07 | 40.44137 | 22.99319 | 2885 ft | 255 kts | 167° |
| 2026-05-06 20:07 | 40.42364 | 22.99836 | 3602 ft | 264 kts | 167° |
| 2026-05-06 20:08 | 40.40568 | 23.00356 | 4566 ft | 265 kts | 167° |
| 2026-05-06 20:08 | 40.38780 | 23.00868 | 5409 ft | 269 kts | 168° |
| 2026-05-06 20:08 | 40.36945 | 23.01393 | 6307 ft | 271 kts | 168° |
| 2026-05-06 20:08 | 40.35085 | 23.01895 | 7110 ft | 276 kts | 174° |
| 2026-05-06 20:09 | 40.33184 | 23.01597 | 7878 ft | 280 kts | 203° |
| 2026-05-06 20:09 | 40.31603 | 23.00131 | 8695 ft | 283 kts | 230° |
| 2026-05-06 20:09 | 40.30663 | 22.97873 | 9489 ft | 286 kts | 255° |
| 2026-05-06 20:09 | 40.30565 | 22.95274 | 10258 ft | 291 kts | 281° |
| 2026-05-06 20:10 | 40.31324 | 22.92750 | 10615 ft | 312 kts | 303° |
| 2026-05-06 20:10 | 40.32861 | 22.90675 | 10847 ft | 334 kts | 325° |
| 2026-05-06 20:10 | 40.35032 | 22.89494 | 11370 ft | 346 kts | 351° |
| 2026-05-06 20:10 | 40.37427 | 22.89709 | 12131 ft | 349 kts | 15° |
| 2026-05-06 20:11 | 40.39705 | 22.90810 | 12951 ft | 350 kts | 22° |
| 2026-05-06 20:11 | 40.41956 | 22.92087 | 13645 ft | 355 kts | 22° |
| 2026-05-06 20:11 | 40.44249 | 22.93342 | 14334 ft | 359 kts | 21° |
| 2026-05-06 20:11 | 40.46587 | 22.94518 | 15022 ft | 362 kts | 19° |
| 2026-05-06 20:12 | 40.48940 | 22.95631 | 15708 ft | 365 kts | 18° |
| 2026-05-06 20:12 | 40.51343 | 22.96745 | 16373 ft | 368 kts | 18° |
| 2026-05-06 20:12 | 40.53817 | 22.97638 | 16982 ft | 371 kts | 4° |
| 2026-05-06 20:12 | 40.56395 | 22.97668 | 17639 ft | 372 kts | 356° |
| 2026-05-06 20:13 | 40.58970 | 22.97295 | 18255 ft | 373 kts | 347° |
| 2026-05-06 20:13 | 40.61494 | 22.96408 | 18842 ft | 377 kts | 342° |
| 2026-05-06 20:13 | 40.64003 | 22.95372 | 19426 ft | 380 kts | 341° |
| 2026-05-06 20:13 | 40.66521 | 22.94285 | 20007 ft | 382 kts | 341° |
| 2026-05-06 20:14 | 40.69059 | 22.93184 | 20569 ft | 386 kts | 341° |
| 2026-05-06 20:14 | 40.71586 | 22.92098 | 21100 ft | 389 kts | 341° |
| 2026-05-06 20:14 | 40.74167 | 22.91000 | 21635 ft | 391 kts | 341° |
| 2026-05-06 20:14 | 40.76768 | 22.89903 | 22141 ft | 394 kts | 341° |
| 2026-05-06 20:15 | 40.79394 | 22.88803 | 22624 ft | 397 kts | 341° |
| 2026-05-06 20:15 | 40.82038 | 22.87698 | 23094 ft | 400 kts | 341° |
| 2026-05-06 20:15 | 40.84703 | 22.86587 | 23559 ft | 403 kts | 341° |
| 2026-05-06 20:15 | 40.87381 | 22.85471 | 24017 ft | 405 kts | 341° |
| 2026-05-06 20:16 | 40.90041 | 22.84363 | 24444 ft | 408 kts | 341° |
| 2026-05-06 20:16 | 40.92757 | 22.83231 | 24870 ft | 411 kts | 341° |
| 2026-05-06 20:16 | 40.95488 | 22.82091 | 25305 ft | 412 kts | 341° |
| 2026-05-06 20:16 | 40.98232 | 22.80944 | 25719 ft | 415 kts | 341° |
| 2026-05-06 20:17 | 41.00992 | 22.79790 | 26104 ft | 417 kts | 341° |
| 2026-05-06 20:17 | 41.03771 | 22.78628 | 26469 ft | 420 kts | 341° |
| 2026-05-06 20:17 | 41.06563 | 22.77458 | 26856 ft | 422 kts | 341° |
| 2026-05-06 20:17 | 41.09366 | 22.76284 | 27228 ft | 424 kts | 341° |
| 2026-05-06 20:18 | 41.12186 | 22.75100 | 27556 ft | 426 kts | 341° |
| 2026-05-06 20:18 | 41.14986 | 22.73921 | 27877 ft | 429 kts | 341° |
| 2026-05-06 20:18 | 41.17830 | 22.72724 | 28228 ft | 430 kts | 341° |
| 2026-05-06 20:18 | 41.20691 | 22.71518 | 28571 ft | 432 kts | 341° |
| 2026-05-06 20:19 | 41.23563 | 22.70308 | 28897 ft | 433 kts | 341° |
| 2026-05-06 20:19 | 41.26442 | 22.69094 | 29184 ft | 436 kts | 341° |
| 2026-05-06 20:19 | 41.29338 | 22.67871 | 29485 ft | 438 kts | 341° |
| 2026-05-06 20:19 | 41.32250 | 22.66641 | 29778 ft | 440 kts | 341° |
| 2026-05-06 20:20 | 41.35172 | 22.65405 | 30082 ft | 441 kts | 341° |
| 2026-05-06 20:20 | 41.38097 | 22.64169 | 30353 ft | 442 kts | 341° |
| 2026-05-06 20:20 | 41.41001 | 22.62940 | 30590 ft | 444 kts | 341° |
| 2026-05-06 20:20 | 41.43952 | 22.61687 | 30873 ft | 446 kts | 340° |
| 2026-05-06 20:21 | 41.46897 | 22.60435 | 31266 ft | 443 kts | 341° |
| 2026-05-06 20:21 | 41.49833 | 22.59188 | 31654 ft | 442 kts | 341° |
| 2026-05-06 20:21 | 41.52755 | 22.57945 | 32000 ft | 441 kts | 341° |
| 2026-05-06 20:21 | 41.55679 | 22.56701 | 32304 ft | 441 kts | 340° |
| 2026-05-06 20:22 | 41.58600 | 22.55457 | 32613 ft | 440 kts | 340° |
| 2026-05-06 20:22 | 41.61513 | 22.54214 | 32943 ft | 439 kts | 340° |
| 2026-05-06 20:22 | 41.64382 | 22.52989 | 33216 ft | 439 kts | 340° |
| 2026-05-06 20:22 | 41.67286 | 22.51748 | 33490 ft | 439 kts | 340° |
| 2026-05-06 20:23 | 41.70192 | 22.50504 | 33797 ft | 438 kts | 340° |
| 2026-05-06 20:23 | 41.73093 | 22.49261 | 34057 ft | 437 kts | 340° |
| 2026-05-06 20:23 | 41.75992 | 22.48018 | 34318 ft | 437 kts | 340° |
| 2026-05-06 20:23 | 41.78884 | 22.46777 | 34599 ft | 436 kts | 340° |
| 2026-05-06 20:24 | 41.81772 | 22.45537 | 34818 ft | 436 kts | 340° |
| 2026-05-06 20:24 | 41.84666 | 22.44294 | 35044 ft | 436 kts | 340° |
| 2026-05-06 20:24 | 41.87548 | 22.43053 | 35307 ft | 435 kts | 340° |
| 2026-05-06 20:24 | 41.90390 | 22.41828 | 35540 ft | 434 kts | 340° |
| 2026-05-06 20:25 | 41.93275 | 22.40583 | 35730 ft | 435 kts | 340° |
| 2026-05-06 20:25 | 41.96155 | 22.39341 | 35927 ft | 435 kts | 340° |
| 2026-05-06 20:25 | 41.99033 | 22.38100 | 36150 ft | 434 kts | 340° |
| 2026-05-06 20:25 | 42.01908 | 22.36858 | 36374 ft | 434 kts | 340° |
| 2026-05-06 20:26 | 42.04782 | 22.35615 | 36556 ft | 434 kts | 340° |
| 2026-05-06 20:26 | 42.07659 | 22.34369 | 36798 ft | 433 kts | 340° |
| 2026-05-06 20:26 | 42.10501 | 22.33137 | 37256 ft | 426 kts | 340° |
| 2026-05-06 20:26 | 42.13260 | 22.31940 | 37651 ft | 421 kts | 340° |
| 2026-05-06 20:27 | 42.16050 | 22.30727 | 37758 ft | 422 kts | 340° |
| 2026-05-06 20:27 | 42.18862 | 22.29504 | 37801 ft | 426 kts | 340° |
| 2026-05-06 20:27 | 42.21685 | 22.28277 | 37930 ft | 426 kts | 340° |
| 2026-05-06 20:27 | 42.24508 | 22.27047 | 38021 ft | 427 kts | 340° |
| 2026-05-06 20:28 | 42.30084 | 22.24274 | 38024 ft | 425 kts | 330° |
| 2026-05-06 20:28 | 42.34841 | 22.19684 | 38039 ft | 419 kts | 317° |
| 2026-05-06 20:29 | 42.39143 | 22.14489 | 38032 ft | 416 kts | 317° |
| 2026-05-06 20:29 | 42.43453 | 22.09273 | 38020 ft | 415 kts | 317° |
| 2026-05-06 20:30 | 42.49942 | 22.01471 | 38027 ft | 416 kts | 317° |
| 2026-05-06 20:31 | 42.54253 | 21.96303 | 38026 ft | 417 kts | 317° |
| 2026-05-06 20:31 | 42.58545 | 21.90980 | 38016 ft | 418 kts | 316° |
| 2026-05-06 20:32 | 42.62797 | 21.85579 | 38022 ft | 419 kts | 315° |
| 2026-05-06 20:32 | 42.67060 | 21.80164 | 38026 ft | 420 kts | 316° |
| 2026-05-06 20:33 | 42.71341 | 21.74732 | 38042 ft | 421 kts | 316° |
| 2026-05-06 20:33 | 42.75602 | 21.69326 | 38045 ft | 422 kts | 316° |
| 2026-05-06 20:34 | 42.79900 | 21.63863 | 38051 ft | 423 kts | 316° |
| 2026-05-06 20:34 | 42.84210 | 21.58371 | 38040 ft | 425 kts | 315° |
| 2026-05-06 20:35 | 42.88522 | 21.52871 | 38040 ft | 425 kts | 315° |
| 2026-05-06 20:35 | 42.92828 | 21.47361 | 38032 ft | 424 kts | 315° |
| 2026-05-06 20:36 | 42.97096 | 21.41895 | 38033 ft | 423 kts | 315° |
| 2026-05-06 20:36 | 43.01375 | 21.36403 | 38032 ft | 422 kts | 315° |
| 2026-05-06 20:37 | 43.05643 | 21.30916 | 38032 ft | 420 kts | 315° |
| 2026-05-06 20:37 | 43.09889 | 21.25443 | 38030 ft | 419 kts | 315° |
| 2026-05-06 20:38 | 43.14100 | 21.20001 | 38026 ft | 419 kts | 315° |
| 2026-05-06 20:38 | 43.18327 | 21.14532 | 38025 ft | 418 kts | 315° |
| 2026-05-06 20:39 | 43.22553 | 21.09055 | 38028 ft | 418 kts | 315° |
| 2026-05-06 20:39 | 43.26782 | 21.03559 | 38022 ft | 419 kts | 315° |
| 2026-05-06 20:40 | 43.30983 | 20.98089 | 38017 ft | 420 kts | 315° |
| 2026-05-06 20:40 | 43.35219 | 20.92565 | 38023 ft | 420 kts | 315° |
| 2026-05-06 20:41 | 43.39456 | 20.87025 | 38021 ft | 421 kts | 315° |
| 2026-05-06 20:41 | 43.43673 | 20.81503 | 38024 ft | 422 kts | 315° |
| 2026-05-06 20:42 | 43.47922 | 20.75926 | 38019 ft | 423 kts | 315° |
| 2026-05-06 20:42 | 43.52179 | 20.70325 | 38006 ft | 424 kts | 315° |
| 2026-05-06 20:43 | 43.56439 | 20.64714 | 38000 ft | 424 kts | 315° |
| 2026-05-06 20:43 | 43.60694 | 20.59094 | 38003 ft | 424 kts | 314° |
| 2026-05-06 20:44 | 43.64919 | 20.53503 | 37994 ft | 423 kts | 314° |
| 2026-05-06 20:44 | 43.69164 | 20.47876 | 37998 ft | 422 kts | 314° |
| 2026-05-06 20:45 | 43.73397 | 20.42252 | 37998 ft | 422 kts | 314° |
| 2026-05-06 20:45 | 43.76910 | 20.37577 | 37995 ft | 421 kts | 314° |
| 2026-05-06 20:46 | 43.81811 | 20.31036 | 37997 ft | 421 kts | 314° |
| 2026-05-06 20:46 | 43.86023 | 20.25407 | 37997 ft | 421 kts | 314° |
| 2026-05-06 20:47 | 43.90233 | 20.19762 | 37989 ft | 421 kts | 314° |
| 2026-05-06 20:47 | 43.94438 | 20.14117 | 37987 ft | 420 kts | 314° |
| 2026-05-06 20:48 | 43.98633 | 20.08473 | 37992 ft | 420 kts | 314° |
| 2026-05-06 20:48 | 44.02797 | 20.02860 | 37991 ft | 420 kts | 314° |
| 2026-05-06 20:49 | 44.06991 | 19.97199 | 37984 ft | 420 kts | 314° |
| 2026-05-06 20:49 | 44.11182 | 19.91519 | 37985 ft | 421 kts | 314° |
| 2026-05-06 20:50 | 44.15310 | 19.85916 | 37986 ft | 420 kts | 314° |
| 2026-05-06 20:50 | 44.19541 | 19.80167 | 37980 ft | 420 kts | 314° |
| 2026-05-06 20:51 | 44.23698 | 19.74507 | 37980 ft | 421 kts | 314° |
| 2026-05-06 20:51 | 44.27881 | 19.68798 | 37979 ft | 421 kts | 314° |
| 2026-05-06 20:52 | 44.32068 | 19.63069 | 37981 ft | 421 kts | 313° |
| 2026-05-06 20:52 | 44.35551 | 19.58298 | 37980 ft | 422 kts | 313° |
| 2026-05-06 20:53 | 44.40413 | 19.51621 | 37981 ft | 422 kts | 313° |
| 2026-05-06 20:53 | 44.44594 | 19.45864 | 37964 ft | 422 kts | 313° |
| 2026-05-06 20:54 | 44.48785 | 19.40087 | 37963 ft | 423 kts | 313° |
| 2026-05-06 20:54 | 44.52970 | 19.34300 | 37961 ft | 423 kts | 313° |
| 2026-05-06 20:55 | 44.57130 | 19.28535 | 37959 ft | 423 kts | 313° |
| 2026-05-06 20:55 | 44.61312 | 19.22733 | 37950 ft | 423 kts | 313° |
| 2026-05-06 20:56 | 44.65488 | 19.16916 | 37970 ft | 424 kts | 313° |
| 2026-05-06 20:56 | 44.69672 | 19.11078 | 37964 ft | 424 kts | 313° |
| 2026-05-06 20:57 | 44.73148 | 19.06223 | 37969 ft | 424 kts | 313° |
| 2026-05-06 20:57 | 44.77328 | 19.00371 | 37966 ft | 424 kts | 313° |
| 2026-05-06 20:58 | 44.81483 | 18.94546 | 37967 ft | 424 kts | 313° |
| 2026-05-06 20:58 | 44.85656 | 18.88678 | 37956 ft | 424 kts | 313° |
| 2026-05-06 20:59 | 44.89831 | 18.82796 | 37965 ft | 424 kts | 313° |
| 2026-05-06 20:59 | 44.93999 | 18.76905 | 37951 ft | 424 kts | 313° |
| 2026-05-06 21:00 | 44.98168 | 18.71007 | 37960 ft | 424 kts | 312° |
| 2026-05-06 21:00 | 45.02308 | 18.65135 | 37961 ft | 424 kts | 312° |
| 2026-05-06 21:01 | 45.06469 | 18.59222 | 37953 ft | 424 kts | 312° |
| 2026-05-06 21:01 | 45.10631 | 18.53293 | 37960 ft | 425 kts | 312° |
| 2026-05-06 21:02 | 45.14791 | 18.47353 | 37954 ft | 425 kts | 312° |
| 2026-05-06 21:02 | 45.18952 | 18.41400 | 37957 ft | 425 kts | 312° |
| 2026-05-06 21:03 | 45.23085 | 18.35479 | 37950 ft | 425 kts | 312° |
| 2026-05-06 21:03 | 45.27237 | 18.29510 | 37948 ft | 425 kts | 312° |
| 2026-05-06 21:04 | 45.31388 | 18.23527 | 37955 ft | 425 kts | 312° |
| 2026-05-06 21:04 | 45.35536 | 18.17542 | 37957 ft | 425 kts | 312° |
| 2026-05-06 21:05 | 45.39651 | 18.11588 | 37958 ft | 425 kts | 311° |
| 2026-05-06 21:05 | 45.43784 | 18.05590 | 37972 ft | 425 kts | 311° |
| 2026-05-06 21:06 | 45.47918 | 17.99587 | 37966 ft | 424 kts | 311° |
| 2026-05-06 21:06 | 45.52048 | 17.93574 | 37966 ft | 424 kts | 311° |
| 2026-05-06 21:07 | 45.56144 | 17.87595 | 37967 ft | 424 kts | 311° |
| 2026-05-06 21:07 | 45.60265 | 17.81566 | 37980 ft | 424 kts | 311° |
| 2026-05-06 21:08 | 45.64387 | 17.75527 | 37968 ft | 425 kts | 311° |
| 2026-05-06 21:08 | 45.68510 | 17.69465 | 37974 ft | 425 kts | 311° |
| 2026-05-06 21:09 | 45.72634 | 17.63393 | 37978 ft | 425 kts | 311° |
| 2026-05-06 21:09 | 45.76729 | 17.57341 | 37973 ft | 427 kts | 311° |
| 2026-05-06 21:10 | 45.80858 | 17.51231 | 37978 ft | 427 kts | 311° |
| 2026-05-06 21:10 | 45.84991 | 17.45105 | 37953 ft | 428 kts | 311° |
| 2026-05-06 21:11 | 45.89126 | 17.38966 | 37950 ft | 428 kts | 311° |
| 2026-05-06 21:11 | 45.93256 | 17.32814 | 37953 ft | 428 kts | 311° |
| 2026-05-06 21:12 | 45.97352 | 17.26699 | 37940 ft | 427 kts | 311° |
| 2026-05-06 21:12 | 46.01477 | 17.20530 | 37946 ft | 427 kts | 311° |
| 2026-05-06 21:13 | 46.05590 | 17.14360 | 37927 ft | 427 kts | 311° |
| 2026-05-06 21:13 | 46.09697 | 17.08188 | 37931 ft | 426 kts | 311° |
| 2026-05-06 21:14 | 46.13765 | 17.02055 | 37933 ft | 425 kts | 311° |
| 2026-05-06 21:14 | 46.17850 | 16.95884 | 37924 ft | 425 kts | 311° |
| 2026-05-06 21:15 | 46.21931 | 16.89705 | 37924 ft | 425 kts | 311° |
| 2026-05-06 21:15 | 46.26011 | 16.83519 | 37925 ft | 425 kts | 311° |
| 2026-05-06 21:16 | 46.30083 | 16.77329 | 37925 ft | 425 kts | 311° |
| 2026-05-06 21:16 | 46.34133 | 16.71155 | 37922 ft | 426 kts | 311° |
| 2026-05-06 21:17 | 46.38212 | 16.64922 | 37916 ft | 427 kts | 311° |
| 2026-05-06 21:17 | 46.42302 | 16.58658 | 37917 ft | 428 kts | 311° |
| 2026-05-06 21:18 | 46.46399 | 16.52371 | 37916 ft | 429 kts | 311° |
| 2026-05-06 21:18 | 46.50474 | 16.46099 | 37914 ft | 430 kts | 311° |
| 2026-05-06 21:19 | 46.54581 | 16.39771 | 37908 ft | 430 kts | 311° |
| 2026-05-06 21:19 | 46.58682 | 16.33429 | 37908 ft | 431 kts | 310° |
| 2026-05-06 21:20 | 46.62782 | 16.27075 | 37907 ft | 431 kts | 310° |
| 2026-05-06 21:20 | 46.66876 | 16.20716 | 37906 ft | 430 kts | 310° |
| 2026-05-06 21:21 | 46.70937 | 16.14395 | 37906 ft | 430 kts | 310° |
| 2026-05-06 21:21 | 46.75012 | 16.08033 | 37897 ft | 429 kts | 310° |
| 2026-05-06 21:22 | 46.79084 | 16.01666 | 37896 ft | 429 kts | 310° |
| 2026-05-06 21:22 | 46.83348 | 15.95648 | 37899 ft | 430 kts | 316° |
| 2026-05-06 21:23 | 46.87931 | 15.90031 | 37900 ft | 430 kts | 317° |
| 2026-05-06 21:23 | 46.92525 | 15.84424 | 37898 ft | 430 kts | 317° |
| 2026-05-06 21:24 | 46.97095 | 15.78763 | 37892 ft | 431 kts | 317° |
| 2026-05-06 21:24 | 47.01619 | 15.73096 | 37889 ft | 431 kts | 316° |
| 2026-05-06 21:25 | 47.06170 | 15.67370 | 37884 ft | 431 kts | 316° |
| 2026-05-06 21:25 | 47.10721 | 15.61632 | 37885 ft | 432 kts | 316° |
| 2026-05-06 21:26 | 47.15279 | 15.55869 | 37890 ft | 432 kts | 316° |
| 2026-05-06 21:26 | 47.19809 | 15.50133 | 37891 ft | 433 kts | 316° |
| 2026-05-06 21:27 | 47.24378 | 15.44330 | 37883 ft | 434 kts | 316° |
| 2026-05-06 21:27 | 47.28947 | 15.38514 | 37889 ft | 434 kts | 316° |
| 2026-05-06 21:28 | 47.33517 | 15.32687 | 37867 ft | 435 kts | 316° |
| 2026-05-06 21:28 | 47.38054 | 15.26884 | 37869 ft | 435 kts | 316° |
| 2026-05-06 21:29 | 47.42608 | 15.21039 | 37889 ft | 434 kts | 316° |
| 2026-05-06 21:29 | 47.47161 | 15.15189 | 37884 ft | 433 kts | 316° |
| 2026-05-06 21:30 | 47.51705 | 15.09340 | 37883 ft | 433 kts | 316° |
| 2026-05-06 21:30 | 47.56220 | 15.03513 | 37891 ft | 434 kts | 315° |
| 2026-05-06 21:31 | 47.60768 | 14.97628 | 37865 ft | 434 kts | 315° |
| 2026-05-06 21:31 | 47.65309 | 14.91737 | 37888 ft | 434 kts | 315° |
| 2026-05-06 21:32 | 47.69847 | 14.85836 | 37871 ft | 433 kts | 315° |
| 2026-05-06 21:32 | 47.76607 | 14.77022 | 37884 ft | 433 kts | 315° |
| 2026-05-06 21:33 | 47.81132 | 14.71098 | 37888 ft | 434 kts | 315° |
| 2026-05-06 21:33 | 47.85664 | 14.65157 | 37885 ft | 434 kts | 315° |
| 2026-05-06 21:34 | 47.90159 | 14.59248 | 37883 ft | 434 kts | 315° |
| 2026-05-06 21:34 | 47.94688 | 14.53285 | 37887 ft | 434 kts | 315° |
| 2026-05-06 21:35 | 47.99216 | 14.47301 | 37883 ft | 435 kts | 315° |
| 2026-05-06 21:35 | 48.03749 | 14.41289 | 37871 ft | 436 kts | 315° |
| 2026-05-06 21:36 | 48.08254 | 14.35311 | 37881 ft | 436 kts | 315° |
| 2026-05-06 21:36 | 48.12789 | 14.29284 | 37883 ft | 436 kts | 315° |
| 2026-05-06 21:37 | 48.17216 | 14.23383 | 37888 ft | 436 kts | 315° |
| 2026-05-06 21:37 | 48.21742 | 14.17324 | 37890 ft | 436 kts | 315° |
| 2026-05-06 21:38 | 48.26239 | 14.11297 | 37890 ft | 436 kts | 315° |
| 2026-05-06 21:38 | 48.30759 | 14.05222 | 37890 ft | 437 kts | 314° |
| 2026-05-06 21:39 | 48.35281 | 13.99133 | 37888 ft | 436 kts | 314° |
| 2026-05-06 21:39 | 48.39798 | 13.93037 | 37894 ft | 436 kts | 314° |
| 2026-05-06 21:40 | 48.44301 | 13.86937 | 37886 ft | 436 kts | 314° |
| 2026-05-06 21:40 | 48.48775 | 13.80863 | 37882 ft | 436 kts | 314° |
| 2026-05-06 21:41 | 48.53284 | 13.74726 | 37891 ft | 436 kts | 314° |
| 2026-05-06 21:41 | 48.57785 | 13.68588 | 37892 ft | 436 kts | 314° |
| 2026-05-06 21:42 | 48.62260 | 13.62471 | 37882 ft | 437 kts | 314° |
| 2026-05-06 21:42 | 48.66744 | 13.56265 | 37887 ft | 437 kts | 313° |
| 2026-05-06 21:43 | 48.71059 | 13.49804 | 37877 ft | 436 kts | 311° |
| 2026-05-06 21:43 | 48.75344 | 13.43291 | 37882 ft | 436 kts | 312° |
| 2026-05-06 21:44 | 48.79640 | 13.36808 | 37861 ft | 436 kts | 312° |
| 2026-05-06 21:44 | 48.83916 | 13.30371 | 37870 ft | 435 kts | 312° |
| 2026-05-06 21:45 | 48.88212 | 13.23883 | 37867 ft | 436 kts | 312° |
| 2026-05-06 21:45 | 48.92507 | 13.17373 | 37867 ft | 436 kts | 312° |
| 2026-05-06 21:46 | 48.96794 | 13.10847 | 37865 ft | 436 kts | 312° |
| 2026-05-06 21:46 | 49.01057 | 13.04342 | 37856 ft | 437 kts | 312° |
| 2026-05-06 21:47 | 49.05353 | 12.97771 | 37863 ft | 438 kts | 312° |
| 2026-05-06 21:47 | 49.09648 | 12.91183 | 37867 ft | 439 kts | 311° |
| 2026-05-06 21:48 | 49.13954 | 12.84565 | 37858 ft | 439 kts | 311° |
| 2026-05-06 21:48 | 49.18247 | 12.77943 | 37858 ft | 439 kts | 311° |
| 2026-05-06 21:49 | 49.22515 | 12.71340 | 37858 ft | 439 kts | 311° |
| 2026-05-06 21:49 | 49.26801 | 12.64688 | 37859 ft | 439 kts | 311° |
| 2026-05-06 21:50 | 49.31094 | 12.58011 | 37850 ft | 440 kts | 311° |
| 2026-05-06 21:50 | 49.35245 | 12.51229 | 37847 ft | 438 kts | 307° |
| 2026-05-06 21:51 | 49.39036 | 12.43899 | 37845 ft | 438 kts | 304° |
| 2026-05-06 21:51 | 49.42751 | 12.36490 | 37843 ft | 437 kts | 305° |
| 2026-05-06 21:52 | 49.46487 | 12.29107 | 37842 ft | 438 kts | 305° |
| 2026-05-06 21:52 | 49.50215 | 12.21792 | 37842 ft | 438 kts | 305° |
| 2026-05-06 21:53 | 49.53976 | 12.14429 | 37842 ft | 437 kts | 305° |
| 2026-05-06 21:53 | 49.57724 | 12.07066 | 37844 ft | 437 kts | 305° |
| 2026-05-06 21:54 | 49.61469 | 11.99683 | 37835 ft | 437 kts | 305° |
| 2026-05-06 21:54 | 49.65186 | 11.92334 | 37831 ft | 438 kts | 305° |
| 2026-05-06 21:55 | 49.68927 | 11.84923 | 37836 ft | 437 kts | 305° |
| 2026-05-06 21:55 | 49.72662 | 11.77500 | 37834 ft | 438 kts | 305° |
| 2026-05-06 21:56 | 49.76391 | 11.70073 | 37837 ft | 438 kts | 305° |
| 2026-05-06 21:56 | 49.80100 | 11.62665 | 37835 ft | 438 kts | 305° |
| 2026-05-06 21:57 | 49.83807 | 11.55238 | 37834 ft | 438 kts | 305° |
| 2026-05-06 21:57 | 49.87527 | 11.47762 | 37837 ft | 438 kts | 305° |
| 2026-05-06 21:58 | 49.91245 | 11.40270 | 37841 ft | 438 kts | 304° |
| 2026-05-06 21:58 | 49.94956 | 11.32767 | 37846 ft | 439 kts | 304° |
| 2026-05-06 21:59 | 49.98646 | 11.25288 | 37843 ft | 439 kts | 304° |
| 2026-05-06 21:59 | 50.02355 | 11.17744 | 37837 ft | 440 kts | 304° |
| 2026-05-06 22:00 | 50.06065 | 11.10186 | 37842 ft | 440 kts | 304° |
| 2026-05-06 22:00 | 50.09773 | 11.02613 | 37843 ft | 440 kts | 304° |
| 2026-05-06 22:01 | 50.13452 | 10.95074 | 37848 ft | 440 kts | 304° |
| 2026-05-06 22:01 | 50.17145 | 10.87478 | 37852 ft | 440 kts | 304° |
| 2026-05-06 22:02 | 50.20840 | 10.79859 | 37852 ft | 440 kts | 304° |
| 2026-05-06 22:02 | 50.24504 | 10.72284 | 37853 ft | 440 kts | 304° |
| 2026-05-06 22:03 | 50.28183 | 10.64655 | 37855 ft | 440 kts | 304° |
| 2026-05-06 22:03 | 50.31858 | 10.57006 | 37851 ft | 440 kts | 304° |
| 2026-05-06 22:04 | 50.35534 | 10.49339 | 37854 ft | 440 kts | 304° |
| 2026-05-06 22:04 | 50.39202 | 10.41670 | 37848 ft | 440 kts | 304° |
| 2026-05-06 22:05 | 50.42833 | 10.34046 | 37852 ft | 440 kts | 304° |
| 2026-05-06 22:05 | 50.46493 | 10.26345 | 37853 ft | 440 kts | 304° |
| 2026-05-06 22:06 | 50.50149 | 10.18629 | 37844 ft | 441 kts | 304° |
| 2026-05-06 22:06 | 50.53805 | 10.10898 | 37839 ft | 440 kts | 304° |
| 2026-05-06 22:07 | 50.57424 | 10.03215 | 37850 ft | 440 kts | 304° |
| 2026-05-06 22:07 | 50.61054 | 9.95476 | 37850 ft | 440 kts | 304° |
| 2026-05-06 22:08 | 50.64684 | 9.87725 | 37857 ft | 440 kts | 304° |
| 2026-05-06 22:08 | 50.68311 | 9.79960 | 37851 ft | 440 kts | 304° |
| 2026-05-06 22:09 | 50.71902 | 9.72247 | 37853 ft | 439 kts | 304° |
| 2026-05-06 22:09 | 50.75511 | 9.64472 | 37847 ft | 439 kts | 304° |
| 2026-05-06 22:10 | 50.79113 | 9.56683 | 37856 ft | 439 kts | 304° |
| 2026-05-06 22:10 | 50.82712 | 9.48880 | 37860 ft | 439 kts | 304° |
| 2026-05-06 22:11 | 50.86280 | 9.41126 | 37859 ft | 439 kts | 304° |
| 2026-05-06 22:11 | 50.89868 | 9.33292 | 37861 ft | 439 kts | 304° |
| 2026-05-06 22:12 | 50.97224 | 9.17191 | 37871 ft | 439 kts | 304° |
| 2026-05-06 22:13 | 51.00772 | 9.09332 | 37857 ft | 437 kts | 303° |
| 2026-05-06 22:13 | 51.04329 | 9.01495 | 37863 ft | 437 kts | 304° |
| 2026-05-06 22:14 | 51.07892 | 8.93643 | 37864 ft | 438 kts | 303° |
| 2026-05-06 22:14 | 51.11414 | 8.85828 | 37858 ft | 438 kts | 303° |
| 2026-05-06 22:15 | 51.14817 | 8.77786 | 37863 ft | 437 kts | 298° |
| 2026-05-06 22:15 | 51.17775 | 8.69340 | 37857 ft | 437 kts | 296° |
| 2026-05-06 22:16 | 51.20676 | 8.60820 | 37869 ft | 437 kts | 297° |
| 2026-05-06 22:16 | 51.23580 | 8.52368 | 37880 ft | 437 kts | 297° |
| 2026-05-06 22:17 | 51.26517 | 8.43881 | 37878 ft | 438 kts | 297° |
| 2026-05-06 22:17 | 51.29470 | 8.35357 | 37879 ft | 438 kts | 297° |
| 2026-05-06 22:18 | 51.32413 | 8.26827 | 37880 ft | 438 kts | 297° |
| 2026-05-06 22:18 | 51.35297 | 8.18445 | 37885 ft | 438 kts | 297° |
| 2026-05-06 22:19 | 51.38235 | 8.09895 | 37886 ft | 438 kts | 297° |
| 2026-05-06 22:19 | 51.41161 | 8.01336 | 37892 ft | 438 kts | 297° |
| 2026-05-06 22:20 | 51.44074 | 7.92771 | 37898 ft | 438 kts | 297° |
| 2026-05-06 22:20 | 51.46982 | 7.84198 | 37908 ft | 437 kts | 297° |
| 2026-05-06 22:21 | 51.49857 | 7.75692 | 37908 ft | 437 kts | 297° |
| 2026-05-06 22:21 | 51.52744 | 7.67135 | 37908 ft | 437 kts | 297° |
| 2026-05-06 22:22 | 51.55626 | 7.58552 | 37918 ft | 436 kts | 296° |
| 2026-05-06 22:22 | 51.58500 | 7.49954 | 37916 ft | 436 kts | 297° |
| 2026-05-06 22:23 | 51.61368 | 7.41363 | 37919 ft | 436 kts | 296° |
| 2026-05-06 22:23 | 51.64196 | 7.32853 | 37917 ft | 436 kts | 296° |
| 2026-05-06 22:24 | 51.67051 | 7.24240 | 37919 ft | 437 kts | 296° |
| 2026-05-06 22:24 | 51.69905 | 7.15603 | 37929 ft | 437 kts | 296° |
| 2026-05-06 22:25 | 51.72756 | 7.06943 | 37928 ft | 437 kts | 296° |
| 2026-05-06 22:25 | 51.75580 | 6.98329 | 37933 ft | 437 kts | 296° |
| 2026-05-06 22:26 | 51.78414 | 6.89649 | 37937 ft | 437 kts | 296° |
| 2026-05-06 22:26 | 51.81235 | 6.80991 | 37936 ft | 437 kts | 296° |
| 2026-05-06 22:27 | 51.84061 | 6.72282 | 37933 ft | 438 kts | 296° |
| 2026-05-06 22:27 | 51.86873 | 6.63585 | 37949 ft | 437 kts | 296° |
| 2026-05-06 22:28 | 51.89662 | 6.54929 | 37953 ft | 437 kts | 296° |
| 2026-05-06 22:28 | 51.92465 | 6.46191 | 37971 ft | 437 kts | 296° |
| 2026-05-06 22:29 | 51.95263 | 6.37448 | 37963 ft | 437 kts | 296° |
| 2026-05-06 22:29 | 51.98050 | 6.28710 | 37960 ft | 436 kts | 296° |
| 2026-05-06 22:30 | 52.00803 | 6.20036 | 37964 ft | 436 kts | 296° |
| 2026-05-06 22:30 | 52.03575 | 6.11270 | 37961 ft | 436 kts | 296° |
| 2026-05-06 22:31 | 52.06342 | 6.02498 | 37966 ft | 436 kts | 296° |
| 2026-05-06 22:31 | 52.09109 | 5.93708 | 37965 ft | 437 kts | 296° |
| 2026-05-06 22:32 | 52.11869 | 5.84893 | 37956 ft | 437 kts | 296° |
| 2026-05-06 22:32 | 52.14600 | 5.76130 | 37964 ft | 437 kts | 296° |
| 2026-05-06 22:33 | 52.17340 | 5.67314 | 37978 ft | 436 kts | 296° |
| 2026-05-06 22:33 | 52.20070 | 5.58512 | 37976 ft | 435 kts | 295° |
| 2026-05-06 22:34 | 52.22789 | 5.49697 | 37984 ft | 435 kts | 295° |
| 2026-05-06 22:34 | 52.25483 | 5.40934 | 37989 ft | 435 kts | 295° |
| 2026-05-06 22:35 | 52.28190 | 5.32095 | 37993 ft | 435 kts | 295° |
| 2026-05-06 22:35 | 52.30890 | 5.23250 | 37990 ft | 435 kts | 295° |
| 2026-05-06 22:36 | 52.33581 | 5.14407 | 37993 ft | 434 kts | 295° |
| 2026-05-06 22:36 | 52.36246 | 5.05612 | 37991 ft | 434 kts | 295° |
| 2026-05-06 22:37 | 52.38488 | 4.98177 | 37989 ft | 435 kts | 295° |
| 2026-05-06 22:37 | 52.41592 | 4.87865 | 37992 ft | 434 kts | 295° |
| 2026-05-06 22:38 | 52.44252 | 4.78985 | 37991 ft | 434 kts | 295° |
| 2026-05-06 22:38 | 52.46887 | 4.70165 | 37989 ft | 433 kts | 295° |
| 2026-05-06 22:39 | 52.49531 | 4.61277 | 37997 ft | 433 kts | 295° |
| 2026-05-06 22:39 | 52.52161 | 4.52394 | 38000 ft | 433 kts | 295° |
| 2026-05-06 22:40 | 52.54785 | 4.43511 | 37996 ft | 432 kts | 295° |
| 2026-05-06 22:40 | 52.57336 | 4.34640 | 37994 ft | 432 kts | 289° |
| 2026-05-06 22:41 | 52.59759 | 4.20419 | 38004 ft | 430 kts | 283° |
| 2026-05-06 22:42 | 52.61265 | 4.10881 | 38002 ft | 431 kts | 284° |
| 2026-05-06 22:42 | 52.62794 | 4.01410 | 38010 ft | 432 kts | 284° |
| 2026-05-06 22:43 | 52.64352 | 3.91858 | 38019 ft | 432 kts | 284° |
| 2026-05-06 22:43 | 52.65909 | 3.82311 | 38018 ft | 432 kts | 284° |
| 2026-05-06 22:44 | 52.67461 | 3.72745 | 38020 ft | 432 kts | 284° |
| 2026-05-06 22:44 | 52.69005 | 3.63169 | 38020 ft | 432 kts | 284° |
| 2026-05-06 22:45 | 52.70529 | 3.53652 | 38027 ft | 432 kts | 284° |
| 2026-05-06 22:45 | 52.72054 | 3.44082 | 38028 ft | 431 kts | 284° |
| 2026-05-06 22:46 | 52.73571 | 3.34526 | 38030 ft | 430 kts | 284° |
| 2026-05-06 22:46 | 52.75068 | 3.25032 | 38029 ft | 430 kts | 284° |
| 2026-05-06 22:47 | 52.76565 | 3.15479 | 38036 ft | 430 kts | 284° |
| 2026-05-06 22:47 | 52.78052 | 3.05921 | 38038 ft | 430 kts | 283° |
| 2026-05-06 22:48 | 52.79532 | 2.96365 | 38036 ft | 430 kts | 283° |
| 2026-05-06 22:48 | 52.80997 | 2.86858 | 38037 ft | 429 kts | 283° |
| 2026-05-06 22:49 | 52.82461 | 2.77291 | 38038 ft | 429 kts | 283° |
| 2026-05-06 22:49 | 52.83915 | 2.67718 | 38031 ft | 429 kts | 283° |
| 2026-05-06 22:50 | 52.85364 | 2.58137 | 38037 ft | 429 kts | 283° |
| 2026-05-06 22:50 | 52.86794 | 2.48624 | 38038 ft | 429 kts | 283° |
| 2026-05-06 22:51 | 52.88227 | 2.39032 | 38045 ft | 429 kts | 283° |
| 2026-05-06 22:51 | 52.89653 | 2.29438 | 38051 ft | 429 kts | 283° |
| 2026-05-06 22:52 | 52.91072 | 2.19824 | 38049 ft | 430 kts | 283° |
| 2026-05-06 22:52 | 52.92476 | 2.10253 | 38048 ft | 430 kts | 283° |
| 2026-05-06 22:53 | 52.93879 | 2.00618 | 38047 ft | 430 kts | 283° |
| 2026-05-06 22:53 | 52.95279 | 1.90970 | 38046 ft | 430 kts | 283° |
| 2026-05-06 22:54 | 52.96667 | 1.81324 | 38045 ft | 430 kts | 283° |
| 2026-05-06 22:54 | 52.98038 | 1.71738 | 38050 ft | 430 kts | 283° |
| 2026-05-06 22:55 | 52.99411 | 1.62089 | 38044 ft | 430 kts | 283° |
| 2026-05-06 22:55 | 53.00546 | 1.54067 | 38047 ft | 430 kts | 283° |
| 2026-05-06 22:56 | 53.02124 | 1.42836 | 38047 ft | 429 kts | 282° |
| 2026-05-06 22:56 | 53.03469 | 1.33179 | 38047 ft | 429 kts | 282° |
| 2026-05-06 22:57 | 53.04807 | 1.23530 | 38050 ft | 428 kts | 282° |
| 2026-05-06 22:57 | 53.06136 | 1.13884 | 38057 ft | 428 kts | 282° |
| 2026-05-06 22:58 | 53.07234 | 1.05870 | 38056 ft | 427 kts | 282° |
| 2026-05-06 22:58 | 53.08755 | 0.94659 | 38057 ft | 427 kts | 282° |
| 2026-05-06 22:59 | 53.09839 | 0.86649 | 38056 ft | 427 kts | 282° |
| 2026-05-06 22:59 | 53.11135 | 0.77003 | 38056 ft | 427 kts | 282° |
| 2026-05-06 23:00 | 53.12631 | 0.65800 | 38057 ft | 426 kts | 282° |
| 2026-05-06 23:00 | 53.13910 | 0.56157 | 38053 ft | 426 kts | 282° |
| 2026-05-06 23:01 | 53.14963 | 0.48137 | 38058 ft | 427 kts | 282° |
| 2026-05-06 23:01 | 53.16226 | 0.38474 | 38056 ft | 427 kts | 282° |
| 2026-05-06 23:02 | 53.17482 | 0.28785 | 38055 ft | 428 kts | 282° |
| 2026-05-06 23:02 | 53.18732 | 0.19091 | 38060 ft | 428 kts | 282° |
| 2026-05-06 23:03 | 53.19971 | 0.09446 | 38055 ft | 428 kts | 282° |
| 2026-05-06 23:03 | 53.21205 | -0.00268 | 38070 ft | 428 kts | 282° |
| 2026-05-06 23:04 | 53.22431 | -0.09987 | 38078 ft | 428 kts | 282° |
| 2026-05-06 23:04 | 53.23653 | -0.19718 | 38073 ft | 429 kts | 282° |
| 2026-05-06 23:05 | 53.24859 | -0.29400 | 38081 ft | 429 kts | 282° |
| 2026-05-06 23:05 | 53.26066 | -0.39153 | 38072 ft | 429 kts | 282° |
| 2026-05-06 23:06 | 53.27265 | -0.48909 | 38073 ft | 429 kts | 282° |
| 2026-05-06 23:06 | 53.28410 | -0.58687 | 38075 ft | 429 kts | 280° |
| 2026-05-06 23:07 | 53.29396 | -0.68515 | 38072 ft | 429 kts | 279° |
| 2026-05-06 23:07 | 53.30351 | -0.78288 | 38070 ft | 429 kts | 279° |
| 2026-05-06 23:08 | 53.31318 | -0.88118 | 38066 ft | 429 kts | 279° |
| 2026-05-06 23:08 | 53.32291 | -0.97958 | 38061 ft | 429 kts | 279° |
| 2026-05-06 23:09 | 53.33253 | -1.07751 | 38054 ft | 429 kts | 279° |
| 2026-05-06 23:09 | 53.34211 | -1.17589 | 38044 ft | 428 kts | 279° |
| 2026-05-06 23:10 | 53.35159 | -1.27427 | 38035 ft | 428 kts | 279° |
| 2026-05-06 23:10 | 53.36100 | -1.37263 | 38024 ft | 428 kts | 279° |
| 2026-05-06 23:11 | 53.37029 | -1.47091 | 38019 ft | 427 kts | 279° |
| 2026-05-06 23:11 | 53.37945 | -1.56844 | 38032 ft | 426 kts | 279° |
| 2026-05-06 23:12 | 53.38861 | -1.66661 | 38028 ft | 426 kts | 279° |
| 2026-05-06 23:12 | 53.39763 | -1.76474 | 38037 ft | 426 kts | 279° |
| 2026-05-06 23:13 | 53.40661 | -1.86283 | 38042 ft | 425 kts | 279° |
| 2026-05-06 23:13 | 53.41539 | -1.96008 | 38057 ft | 425 kts | 279° |
| 2026-05-06 23:14 | 53.42417 | -2.05807 | 38066 ft | 425 kts | 279° |
| 2026-05-06 23:14 | 53.43290 | -2.15616 | 38072 ft | 426 kts | 279° |
| 2026-05-06 23:15 | 53.44154 | -2.25456 | 38079 ft | 427 kts | 278° |
| 2026-05-06 23:15 | 53.45013 | -2.35308 | 38072 ft | 427 kts | 278° |
| 2026-05-06 23:16 | 53.45861 | -2.45126 | 38074 ft | 428 kts | 278° |
| 2026-05-06 23:16 | 53.46704 | -2.55015 | 38069 ft | 428 kts | 278° |
| 2026-05-06 23:17 | 53.47541 | -2.64912 | 38064 ft | 429 kts | 278° |
| 2026-05-06 23:17 | 53.48369 | -2.74825 | 38055 ft | 429 kts | 278° |
| 2026-05-06 23:18 | 53.49184 | -2.84676 | 38054 ft | 429 kts | 278° |
| 2026-05-06 23:18 | 53.49993 | -2.94583 | 38050 ft | 428 kts | 278° |
| 2026-05-06 23:19 | 53.50795 | -3.04496 | 38047 ft | 428 kts | 278° |
| 2026-05-06 23:19 | 53.51595 | -3.14429 | 38058 ft | 432 kts | 278° |
| 2026-05-06 23:20 | 53.52394 | -3.24520 | 38057 ft | 440 kts | 278° |
| 2026-05-06 23:20 | 53.53193 | -3.34704 | 38045 ft | 444 kts | 278° |
| 2026-05-06 23:21 | 53.53997 | -3.45052 | 37612 ft | 448 kts | 278° |
| 2026-05-06 23:21 | 53.54391 | -3.50197 | 37283 ft | 439 kts | 278° |
| 2026-05-06 23:21 | 53.54777 | -3.55239 | 36846 ft | 432 kts | 278° |
| 2026-05-06 23:21 | 53.55156 | -3.60225 | 36453 ft | 426 kts | 278° |
| 2026-05-06 23:22 | 53.55525 | -3.65128 | 36066 ft | 420 kts | 278° |
| 2026-05-06 23:22 | 53.55887 | -3.69975 | 35651 ft | 415 kts | 278° |
| 2026-05-06 23:22 | 53.56244 | -3.74760 | 35251 ft | 411 kts | 278° |
| 2026-05-06 23:22 | 53.56594 | -3.79458 | 34865 ft | 410 kts | 278° |
| 2026-05-06 23:23 | 53.56948 | -3.84214 | 34477 ft | 411 kts | 278° |
| 2026-05-06 23:23 | 53.57301 | -3.88995 | 34074 ft | 411 kts | 278° |
| 2026-05-06 23:23 | 53.57649 | -3.93748 | 33670 ft | 407 kts | 278° |
| 2026-05-06 23:23 | 53.57991 | -3.98456 | 33276 ft | 403 kts | 278° |
| 2026-05-06 23:24 | 53.58328 | -4.03113 | 32882 ft | 399 kts | 278° |
| 2026-05-06 23:24 | 53.58659 | -4.07729 | 32498 ft | 396 kts | 278° |
| 2026-05-06 23:24 | 53.58981 | -4.12245 | 32123 ft | 392 kts | 278° |
| 2026-05-06 23:24 | 53.59303 | -4.16774 | 31744 ft | 388 kts | 278° |
| 2026-05-06 23:25 | 53.59621 | -4.21275 | 31371 ft | 386 kts | 278° |
| 2026-05-06 23:25 | 53.59935 | -4.25741 | 30999 ft | 383 kts | 278° |
| 2026-05-06 23:25 | 53.60246 | -4.30181 | 30636 ft | 381 kts | 278° |
| 2026-05-06 23:25 | 53.60554 | -4.34607 | 30271 ft | 379 kts | 278° |
| 2026-05-06 23:26 | 53.60859 | -4.39012 | 29905 ft | 378 kts | 278° |
| 2026-05-06 23:26 | 53.61162 | -4.43399 | 29538 ft | 377 kts | 278° |
| 2026-05-06 23:26 | 53.61460 | -4.47775 | 29151 ft | 375 kts | 278° |
| 2026-05-06 23:26 | 53.61753 | -4.52079 | 28777 ft | 375 kts | 278° |
| 2026-05-06 23:27 | 53.62049 | -4.56433 | 28395 ft | 374 kts | 277° |
| 2026-05-06 23:27 | 53.62342 | -4.60765 | 28015 ft | 373 kts | 277° |
| 2026-05-06 23:27 | 53.62633 | -4.65112 | 27630 ft | 372 kts | 277° |
| 2026-05-06 23:27 | 53.62921 | -4.69428 | 27253 ft | 370 kts | 277° |
| 2026-05-06 23:28 | 53.63206 | -4.73735 | 26870 ft | 369 kts | 277° |
| 2026-05-06 23:28 | 53.63488 | -4.78013 | 26493 ft | 367 kts | 277° |
| 2026-05-06 23:28 | 53.63768 | -4.82276 | 26120 ft | 365 kts | 277° |
| 2026-05-06 23:28 | 53.64040 | -4.86452 | 25747 ft | 362 kts | 277° |
| 2026-05-06 23:29 | 53.64312 | -4.90651 | 25370 ft | 359 kts | 277° |
| 2026-05-06 23:29 | 53.64580 | -4.94808 | 25002 ft | 355 kts | 277° |
| 2026-05-06 23:29 | 53.64844 | -4.98933 | 24636 ft | 353 kts | 277° |
| 2026-05-06 23:29 | 53.65105 | -5.03018 | 24278 ft | 350 kts | 277° |
| 2026-05-06 23:30 | 53.65362 | -5.07074 | 23918 ft | 347 kts | 276° |
| 2026-05-06 23:30 | 53.65616 | -5.11103 | 23559 ft | 344 kts | 276° |
| 2026-05-06 23:30 | 53.65867 | -5.15102 | 23203 ft | 342 kts | 276° |
| 2026-05-06 23:30 | 53.66115 | -5.19068 | 22848 ft | 339 kts | 276° |
| 2026-05-06 23:31 | 53.66360 | -5.23011 | 22491 ft | 337 kts | 276° |
| 2026-05-06 23:31 | 53.66598 | -5.26869 | 22141 ft | 334 kts | 276° |
| 2026-05-06 23:31 | 53.66836 | -5.30756 | 21788 ft | 332 kts | 276° |
| 2026-05-06 23:31 | 53.67073 | -5.34621 | 21439 ft | 330 kts | 276° |
| 2026-05-06 23:32 | 53.67307 | -5.38455 | 21092 ft | 328 kts | 276° |
| 2026-05-06 23:32 | 53.67515 | -5.42270 | 20723 ft | 326 kts | 272° |
| 2026-05-06 23:32 | 53.67345 | -5.46076 | 20360 ft | 324 kts | 262° |
| 2026-05-06 23:32 | 53.66992 | -5.49815 | 20019 ft | 322 kts | 261° |
| 2026-05-06 23:33 | 53.66614 | -5.53513 | 19702 ft | 316 kts | 261° |
| 2026-05-06 23:33 | 53.66231 | -5.57156 | 19266 ft | 316 kts | 260° |
| 2026-05-06 23:33 | 53.65844 | -5.60799 | 18917 ft | 315 kts | 260° |
| 2026-05-06 23:33 | 53.65465 | -5.64366 | 18598 ft | 310 kts | 260° |
| 2026-05-06 23:34 | 53.65087 | -5.67911 | 18083 ft | 307 kts | 260° |
| 2026-05-06 23:34 | 53.64710 | -5.71447 | 17488 ft | 306 kts | 260° |
| 2026-05-06 23:34 | 53.64335 | -5.74971 | 16941 ft | 304 kts | 260° |
| 2026-05-06 23:34 | 53.63963 | -5.78464 | 16426 ft | 302 kts | 260° |
| 2026-05-06 23:35 | 53.63592 | -5.81929 | 15896 ft | 299 kts | 260° |
| 2026-05-06 23:35 | 53.63224 | -5.85368 | 15355 ft | 298 kts | 260° |
| 2026-05-06 23:35 | 53.62862 | -5.88736 | 14844 ft | 295 kts | 260° |
| 2026-05-06 23:35 | 53.62497 | -5.92121 | 14335 ft | 293 kts | 260° |
| 2026-05-06 23:36 | 53.62134 | -5.95478 | 13793 ft | 291 kts | 259° |
| 2026-05-06 23:36 | 53.61771 | -5.98818 | 13285 ft | 289 kts | 259° |
| 2026-05-06 23:36 | 53.61411 | -6.02132 | 12762 ft | 287 kts | 259° |
| 2026-05-06 23:36 | 53.61052 | -6.05425 | 12270 ft | 285 kts | 259° |
| 2026-05-06 23:37 | 53.60696 | -6.08693 | 11757 ft | 283 kts | 259° |
| 2026-05-06 23:37 | 53.60342 | -6.11937 | 11257 ft | 281 kts | 259° |
| 2026-05-06 23:37 | 53.59989 | -6.15152 | 10758 ft | 279 kts | 259° |
| 2026-05-06 23:37 | 53.59640 | -6.18314 | 10260 ft | 277 kts | 259° |
| 2026-05-06 23:38 | 53.59289 | -6.21494 | 9766 ft | 275 kts | 259° |
| 2026-05-06 23:38 | 53.58940 | -6.24646 | 9270 ft | 274 kts | 259° |
| 2026-05-06 23:38 | 53.58592 | -6.27785 | 8782 ft | 272 kts | 259° |
| 2026-05-06 23:38 | 53.58245 | -6.30901 | 8305 ft | 270 kts | 259° |
| 2026-05-06 23:39 | 53.57900 | -6.33993 | 7832 ft | 267 kts | 259° |
| 2026-05-06 23:39 | 53.57557 | -6.37059 | 7362 ft | 266 kts | 259° |
| 2026-05-06 23:39 | 53.57217 | -6.40104 | 6929 ft | 265 kts | 259° |
| 2026-05-06 23:39 | 53.56873 | -6.43157 | 6574 ft | 266 kts | 259° |
| 2026-05-06 23:40 | 53.56535 | -6.46168 | 6273 ft | 265 kts | 259° |
| 2026-05-06 23:40 | 53.56193 | -6.49207 | 5973 ft | 264 kts | 259° |
| 2026-05-06 23:40 | 53.55851 | -6.52236 | 5673 ft | 262 kts | 259° |
| 2026-05-06 23:40 | 53.55510 | -6.55241 | 5419 ft | 260 kts | 259° |
| 2026-05-06 23:41 | 53.55177 | -6.58178 | 5301 ft | 252 kts | 258° |
| 2026-05-06 23:41 | 53.54852 | -6.61027 | 5181 ft | 245 kts | 258° |
| 2026-05-06 23:41 | 53.54502 | -6.63787 | 5062 ft | 237 kts | 250° |
| 2026-05-06 23:41 | 53.53590 | -6.65981 | 4918 ft | 229 kts | 217° |
| 2026-05-06 23:42 | 53.52174 | -6.67127 | 4720 ft | 226 kts | 194° |
| 2026-05-06 23:42 | 53.50624 | -6.67473 | 4496 ft | 224 kts | 185° |
| 2026-05-06 23:42 | 53.49092 | -6.67682 | 4260 ft | 224 kts | 185° |
| 2026-05-06 23:42 | 53.47563 | -6.67902 | 4149 ft | 217 kts | 185° |
| 2026-05-06 23:43 | 53.46084 | -6.67983 | 4042 ft | 208 kts | 170° |
| 2026-05-06 23:43 | 53.44854 | -6.66861 | 3905 ft | 198 kts | 132° |
| 2026-05-06 23:43 | 53.44189 | -6.64916 | 3776 ft | 197 kts | 107° |
| 2026-05-06 23:43 | 53.44008 | -6.62639 | 3627 ft | 197 kts | 95° |
| 2026-05-06 23:44 | 53.43898 | -6.60352 | 3475 ft | 197 kts | 96° |
| 2026-05-06 23:44 | 53.43785 | -6.58083 | 3315 ft | 195 kts | 96° |
| 2026-05-06 23:44 | 53.43672 | -6.55843 | 3160 ft | 192 kts | 96° |
| 2026-05-06 23:44 | 53.43560 | -6.53596 | 3038 ft | 194 kts | 96° |
| 2026-05-06 23:45 | 53.43445 | -6.51354 | 2979 ft | 192 kts | 96° |
| 2026-05-06 23:45 | 53.43336 | -6.49133 | 2872 ft | 193 kts | 94° |
| 2026-05-06 23:45 | 53.43245 | -6.46829 | 2390 ft | 202 kts | 96° |
| 2026-05-06 23:45 | 53.43121 | -6.44500 | 2045 ft | 196 kts | 97° |
| 2026-05-06 23:46 | 53.42995 | -6.42303 | 1788 ft | 184 kts | 96° |
| 2026-05-06 23:46 | 53.42875 | -6.40211 | 1539 ft | 180 kts | 96° |
| 2026-05-06 23:46 | 53.42760 | -6.38179 | 1300 ft | 168 kts | 96° |
| 2026-05-06 23:46 | 53.42656 | -6.36326 | 1110 ft | 149 kts | 96° |
| 2026-05-06 23:47 | 53.42561 | -6.34628 | 1013 ft | 147 kts | 96° |
| 2026-05-06 23:47 | 53.42460 | -6.32931 | 800 ft | 145 kts | 97° |
| 2026-05-06 23:47 | 53.42361 | -6.31275 | 571 ft | 142 kts | 95° |
| 2026-05-06 23:47 | 53.42270 | -6.29670 | 355 ft | 131 kts | 96° |
| 2026-05-06 23:48 | 53.42199 | -6.28226 | 212 ft | 113 kts | 95° |
| 2026-05-06 23:48 | 53.42149 | -6.27285 | 218 ft | 52 kts | 95° |
| 2026-05-06 23:48 | 53.42124 | -6.26816 | 218 ft | 38 kts | 94° |
| 2026-05-06 23:48 | 53.42107 | -6.26410 | 211 ft | 30 kts | 88° |
| 2026-05-06 23:49 | 53.42165 | -6.26136 | 216 ft | 22 kts | 50° |
| 2026-05-06 23:49 | 53.42246 | -6.26000 | 210 ft | 15 kts | 43° |
| 2026-05-06 23:49 | 53.42319 | -6.25873 | 219 ft | 15 kts | 46° |
| 2026-05-06 23:49 | 53.42388 | -6.25752 | 212 ft | 14 kts | 46° |
| 2026-05-06 23:50 | 53.42455 | -6.25636 | 210 ft | 13 kts | 46° |
| 2026-05-06 23:50 | 53.42583 | -6.25423 | 213 ft | 13 kts | 45° |
| 2026-05-06 23:50 | 53.42645 | -6.25319 | 218 ft | 13 kts | 46° |
| 2026-05-06 23:51 | 53.42706 | -6.25214 | 212 ft | 12 kts | 46° |
| 2026-05-06 23:51 | 53.42764 | -6.25111 | 210 ft | 12 kts | 47° |
| 2026-05-06 23:51 | 53.42829 | -6.25026 | 216 ft | 12 kts | 39° |
| 2026-05-06 23:51 | 53.42885 | -6.24930 | 218 ft | 11 kts | 48° |
| 2026-05-06 23:52 | 53.42928 | -6.24850 | 217 ft | 6 kts | 47° |
| 2026-05-06 23:52 | 53.42961 | -6.24820 | 210 ft | 6 kts | 9° |
| 2026-05-06 23:52 | 53.42990 | -6.24815 | 210 ft | 2 kts | 5° |
| 2026-05-06 23:52 | 53.43001 | -6.24813 | 210 ft | 0 kts | 5° |